Time;durP1;ratioP1;P1;durP2;ratioP2;P2;SDS_P1;SDS_P2;PMS_P1;PMS_P2;Temp;Humidity;BMP_temperature;BMP_pressure;BME280_temperature;BME280_humidity;BME280_pressure;Samples;Min_cycle;Max_cycle;Signal;HPM_P1;HPM_P2
2022/09/24 00:01:13;;;;;;;0.00;0.00;;;13.80;99.90;;;;;;5064534;28;20041;-84
2022/09/24 00:03:46;;;;;;;0.00;0.00;;;13.80;99.90;;;;;;5064301;28;20066;-83
2022/09/24 00:06:13;;;;;;;0.00;0.00;;;13.80;99.90;;;;;;5069845;28;20044;-84
2022/09/24 00:08:40;;;;;;;0.00;0.00;;;13.80;99.90;;;;;;5044960;28;20047;-85
2022/09/24 00:11:11;;;;;;;0.00;0.00;;;13.80;99.90;;;;;;5049364;28;20412;-84
2022/09/24 00:13:38;;;;;;;0.00;0.00;;;13.80;99.90;;;;;;5061228;28;20041;-86
2022/09/24 00:16:08;;;;;;;0.00;0.00;;;13.80;99.90;;;;;;5059019;28;20500;-84
2022/09/24 00:18:35;;;;;;;0.00;0.00;;;13.80;99.90;;;;;;5063749;28;20037;-83
2022/09/24 00:21:11;;;;;;;0.00;0.00;;;13.70;99.90;;;;;;5068458;28;20040;-84
2022/09/24 00:23:37;;;;;;;0.00;0.00;;;13.70;99.90;;;;;;5048014;28;20517;-85
2022/09/24 00:28:51;;;;;;;0.00;0.00;;;13.70;99.90;;;;;;5065124;28;20055;-85
2022/09/24 00:31:18;;;;;;;0.00;0.00;;;13.70;99.90;;;;;;5059393;28;20049;-84
2022/09/24 00:33:45;;;;;;;0.00;0.00;;;13.70;99.90;;;;;;5049872;28;20043;-85
2022/09/24 00:36:13;;;;;;;0.00;0.00;;;13.60;99.90;;;;;;5062731;28;20043;-85
2022/09/24 00:38:40;;;;;;;0.00;0.00;;;13.60;99.90;;;;;;5068176;28;20523;-84
2022/09/24 00:41:07;;;;;;;0.00;0.00;;;13.60;99.90;;;;;;5060727;28;20067;-85
2022/09/24 00:43:36;;;;;;;0.00;0.00;;;13.60;99.90;;;;;;5045849;28;20492;-84
2022/09/24 00:46:11;;;;;;;0.00;0.00;;;13.60;99.90;;;;;;5057929;28;20048;-84
2022/09/24 00:48:40;;;;;;;0.03;0.03;;;13.60;99.90;;;;;;5057922;28;20493;-85
2022/09/24 00:51:08;;;;;;;0.00;0.00;;;13.60;99.90;;;;;;5043628;28;20415;-85
2022/09/24 00:53:35;;;;;;;0.00;0.00;;;13.60;99.90;;;;;;5062673;28;20411;-85
2022/09/24 00:56:04;;;;;;;0.00;0.00;;;13.60;99.90;;;;;;5045290;28;20084;-85
2022/09/24 00:58:31;;;;;;;0.00;0.00;;;13.60;99.90;;;;;;5063834;28;20041;-84
2022/09/24 01:01:03;;;;;;;0.00;0.00;;;13.60;99.90;;;;;;5065367;28;20043;-84
2022/09/24 01:03:38;;;;;;;0.00;0.00;;;13.60;99.90;;;;;;5064405;28;20041;-85
2022/09/24 01:06:06;;;;;;;0.00;0.00;;;13.60;99.90;;;;;;5047600;28;20064;-85
2022/09/24 01:08:32;;;;;;;0.00;0.00;;;13.60;99.90;;;;;;5043234;28;20124;-85
2022/09/24 01:11:09;;;;;;;0.00;0.00;;;13.50;99.90;;;;;;5047741;28;20076;-85
2022/09/24 01:13:56;;;;;;;0.00;0.00;;;13.50;99.90;;;;;;5063424;28;20107;-85
2022/09/24 01:16:32;;;;;;;0.00;0.00;;;13.50;99.90;;;;;;5050866;28;20132;-85
2022/09/24 01:19:13;;;;;;;0.00;0.00;;;15.00;99.90;;;;;;5051929;28;20086;-84
2022/09/24 01:21:48;;;;;;;0.00;0.00;;;13.50;99.90;;;;;;5070530;28;20110;-84
2022/09/24 01:24:36;;;;;;;0.00;0.00;;;13.50;99.90;;;;;;5066732;28;20468;-85
2022/09/24 01:27:09;;;;;;;0.00;0.00;;;13.40;99.90;;;;;;5068164;28;20056;-85
2022/09/24 01:29:45;;;;;;;0.00;0.00;;;13.40;99.90;;;;;;5043347;28;20492;-84
2022/09/24 01:32:19;;;;;;;0.00;0.00;;;13.40;99.90;;;;;;5050290;28;20037;-84
2022/09/24 01:34:51;;;;;;;0.00;0.00;;;13.40;99.90;;;;;;5064326;28;20489;-84
2022/09/24 01:37:21;;;;;;;0.00;0.00;;;13.40;99.90;;;;;;5078018;28;20060;-83
2022/09/24 01:39:51;;;;;;;0.00;0.00;;;13.40;99.90;;;;;;5052254;28;20051;-83
2022/09/24 01:42:20;;;;;;;0.00;0.00;;;13.40;99.90;;;;;;5063905;28;20037;-85
2022/09/24 01:44:49;;;;;;;0.00;0.00;;;13.40;99.90;;;;;;5047617;28;20135;-83
2022/09/24 01:47:21;;;;;;;0.00;0.00;;;13.40;99.90;;;;;;5067606;28;20036;-85
2022/09/24 01:49:52;;;;;;;0.00;0.00;;;13.30;99.90;;;;;;5049724;28;20473;-83
2022/09/24 01:52:24;;;;;;;0.00;0.00;;;13.40;99.90;;;;;;5067630;28;20050;-84
2022/09/24 01:54:55;;;;;;;0.00;0.00;;;13.30;99.90;;;;;;5052598;28;20065;-84
2022/09/24 01:57:26;;;;;;;0.00;0.00;;;13.30;99.90;;;;;;5045404;28;20037;-84
2022/09/24 01:59:58;;;;;;;0.00;0.00;;;13.30;99.90;;;;;;5054530;28;20076;-84
2022/09/24 02:02:32;;;;;;;0.00;0.00;;;13.30;99.90;;;;;;5067343;28;20048;-84
2022/09/24 02:05:10;;;;;;;0.00;0.00;;;13.30;99.90;;;;;;5044880;28;20056;-84
2022/09/24 02:07:43;;;;;;;0.00;0.00;;;13.30;99.90;;;;;;5052871;28;20047;-86
2022/09/24 02:10:14;;;;;;;0.00;0.00;;;13.30;99.90;;;;;;5065656;28;20043;-85
2022/09/24 02:12:44;;;;;;;0.00;0.00;;;13.30;99.90;;;;;;5065101;28;20037;-83
2022/09/24 02:15:13;;;;;;;;;;;13.30;99.90;;;;;;5065019;28;20052;-84
2022/09/24 02:17:44;;;;;;;0.00;0.00;;;13.20;99.90;;;;;;5048066;28;19954;-85
2022/09/24 02:20:14;;;;;;;0.00;0.00;;;13.20;99.90;;;;;;5054902;28;20049;-84
2022/09/24 02:22:44;;;;;;;0.00;0.00;;;13.30;99.90;;;;;;5050869;28;20038;-85
2022/09/24 02:25:15;;;;;;;0.00;0.00;;;13.30;99.90;;;;;;5050870;28;20047;-84
2022/09/24 02:27:42;;;;;;;0.00;0.00;;;13.30;99.90;;;;;;5062588;28;20041;-84
2022/09/24 02:30:09;;;;;;;0.00;0.00;;;13.30;99.90;;;;;;5064753;28;20082;-84
2022/09/24 02:32:41;;;;;;;0.00;0.00;;;13.20;99.90;;;;;;5072717;28;20033;-83
2022/09/24 02:35:10;;;;;;;0.00;0.00;;;13.20;99.90;;;;;;5067850;28;20049;-84
2022/09/24 02:37:39;;;;;;;0.00;0.00;;;13.10;99.90;;;;;;5069234;28;20043;-84
2022/09/24 02:40:09;;;;;;;0.00;0.00;;;13.20;99.90;;;;;;5053324;28;20041;-85
2022/09/24 02:42:36;;;;;;;0.00;0.00;;;13.20;99.90;;;;;;5046291;28;20299;-83
2022/09/24 02:45:04;;;;;;;0.00;0.00;;;;;;;;;;5061809;28;20043;-83
2022/09/24 02:47:31;;;;;;;0.00;0.00;;;13.10;99.90;;;;;;5048677;28;20064;-85
2022/09/24 02:49:59;;;;;;;0.00;0.00;;;13.10;99.90;;;;;;5066251;28;20044;-84
2022/09/24 02:52:26;;;;;;;0.00;0.00;;;13.00;99.90;;;;;;5042357;28;20094;-84
2022/09/24 02:54:53;;;;;;;0.00;0.00;;;13.10;99.90;;;;;;5051947;28;20076;-84
2022/09/24 02:57:20;;;;;;;0.00;0.00;;;;;;;;;;5046890;28;20040;-84
2022/09/24 02:59:47;;;;;;;0.00;0.00;;;13.00;99.90;;;;;;5067170;28;20052;-85
2022/09/24 03:02:14;;;;;;;0.00;0.00;;;13.00;99.90;;;;;;5050280;28;20434;-83
2022/09/24 03:04:41;;;;;;;0.00;0.00;;;;;;;;;;5047870;28;20049;-84
2022/09/24 03:07:10;;;;;;;0.00;0.00;;;12.90;99.90;;;;;;5052509;28;20070;-84
2022/09/24 03:09:37;;;;;;;0.00;0.00;;;12.80;99.90;;;;;;5048842;28;20075;-84
2022/09/24 03:12:04;;;;;;;0.00;0.00;;;12.90;99.90;;;;;;5040586;28;20496;-84
2022/09/24 03:14:30;;;;;;;0.00;0.00;;;12.90;99.90;;;;;;5039568;28;20040;-84
2022/09/24 03:16:57;;;;;;;0.00;0.00;;;12.90;99.90;;;;;;5047622;28;20381;-85
2022/09/24 03:21:53;;;;;;;0.00;0.00;;;12.90;99.90;;;;;;5048362;28;20048;-81
2022/09/24 03:24:21;;;;;;;0.00;0.00;;;12.90;99.90;;;;;;5039242;28;20504;-81
2022/09/24 03:26:48;;;;;;;0.10;0.10;;;12.90;99.90;;;;;;5033091;28;20041;-81
2022/09/24 03:29:15;;;;;;;0.00;0.00;;;12.80;99.90;;;;;;5037890;28;20041;-80
2022/09/24 03:31:42;;;;;;;0.00;0.00;;;12.80;99.90;;;;;;5036063;28;20650;-79
2022/09/24 03:34:08;;;;;;;0.00;0.00;;;12.80;99.90;;;;;;5044656;28;20041;-82
2022/09/24 03:36:35;;;;;;;0.00;0.00;;;12.80;99.90;;;;;;5037574;28;20071;-81
2022/09/24 03:39:02;;;;;;;0.00;0.00;;;12.80;99.90;;;;;;5057865;28;20051;-82
2022/09/24 03:41:30;;;;;;;0.00;0.00;;;12.80;99.90;;;;;;5049039;28;20043;-82
2022/09/24 03:43:57;;;;;;;0.00;0.00;;;12.80;99.90;;;;;;5058332;28;20029;-81
2022/09/24 03:46:27;;;;;;;0.00;0.00;;;12.80;99.90;;;;;;5034916;28;20071;-81
2022/09/24 03:48:54;;;;;;;0.00;0.00;;;12.80;99.90;;;;;;5053238;28;20072;-83
2022/09/24 03:51:21;;;;;;;0.00;0.00;;;12.80;99.90;;;;;;5035295;28;20416;-81
2022/09/24 03:53:48;;;;;;;0.00;0.00;;;12.80;99.90;;;;;;5034539;28;20432;-80
2022/09/24 03:56:15;;;;;;;0.03;0.03;;;12.70;99.90;;;;;;5050264;28;20111;-81
2022/09/24 03:58:46;;;;;;;0.00;0.00;;;12.70;99.90;;;;;;5051262;28;20041;-83
2022/09/24 04:01:19;;;;;;;0.00;0.00;;;12.70;99.90;;;;;;5034371;28;20033;-81
2022/09/24 04:03:47;;;;;;;0.00;0.00;;;12.70;99.90;;;;;;5042204;28;20539;-80
2022/09/24 04:06:14;;;;;;;0.00;0.00;;;12.70;99.90;;;;;;5053047;28;20051;-80
2022/09/24 04:08:41;;;;;;;0.00;0.00;;;12.70;99.90;;;;;;5036330;28;20045;-82
2022/09/24 04:11:07;;;;;;;0.10;0.10;;;12.60;99.90;;;;;;5053137;28;20108;-80
2022/09/24 04:13:34;;;;;;;0.00;0.00;;;12.60;99.90;;;;;;5048632;28;20500;-80
2022/09/24 04:16:03;;;;;;;0.00;0.00;;;12.60;99.90;;;;;;5055631;28;20043;-81
2022/09/24 04:18:30;;;;;;;0.00;0.00;;;12.60;99.90;;;;;;5040802;28;20052;-80
2022/09/24 04:21:04;;;;;;;0.10;0.10;;;12.50;99.90;;;;;;5035383;28;20532;-81
2022/09/24 04:23:31;;;;;;;0.00;0.00;;;12.50;99.90;;;;;;5048443;28;20051;-80
2022/09/24 04:26:01;;;;;;;0.00;0.00;;;12.40;99.90;;;;;;5035174;28;20047;-81
2022/09/24 04:28:28;;;;;;;0.00;0.00;;;12.40;99.90;;;;;;5036674;28;20570;-82
2022/09/24 04:30:55;;;;;;;0.00;0.00;;;12.40;99.90;;;;;;5036042;28;20041;-81
2022/09/24 04:33:24;;;;;;;0.00;0.00;;;12.30;99.90;;;;;;5056759;28;20044;-81
2022/09/24 04:35:50;;;;;;;0.00;0.00;;;12.20;99.90;;;;;;5061104;28;20568;-80
2022/09/24 04:38:19;;;;;;;0.08;0.08;;;12.30;99.90;;;;;;5051594;28;20496;-81
2022/09/24 04:40:46;;;;;;;0.00;0.00;;;12.40;99.90;;;;;;5049894;28;20040;-82
2022/09/24 04:43:13;;;;;;;0.00;0.00;;;12.40;99.90;;;;;;5038313;28;20036;-82
2022/09/24 04:45:42;;;;;;;0.00;0.00;;;12.40;99.90;;;;;;5050889;28;20043;-80
2022/09/24 04:48:08;;;;;;;0.00;0.00;;;12.40;99.90;;;;;;5058845;28;20179;-81
2022/09/24 04:50:37;;;;;;;0.00;0.00;;;12.30;99.90;;;;;;5039919;28;20469;-79
2022/09/24 04:53:11;;;;;;;0.00;0.00;;;12.20;99.90;;;;;;5055538;28;20075;-78
2022/09/24 04:55:38;;;;;;;0.00;0.00;;;12.30;99.90;;;;;;5037485;28;20059;-81
2022/09/24 04:58:05;;;;;;;0.00;0.00;;;12.30;99.90;;;;;;5038815;28;20489;-80
2022/09/24 05:00:32;;;;;;;0.00;0.00;;;12.30;99.90;;;;;;5039638;28;20480;-80
2022/09/24 05:03:02;;;;;;;0.00;0.00;;;12.30;99.90;;;;;;5054393;28;20096;-80
2022/09/24 05:05:30;;;;;;;0.00;0.00;;;12.40;99.90;;;;;;5033909;28;20506;-82
2022/09/24 05:08:00;;;;;;;0.05;0.05;;;12.40;99.90;;;;;;5058709;28;20100;-81
2022/09/24 05:10:28;;;;;;;0.00;0.00;;;12.20;99.90;;;;;;5058904;28;20123;-82
2022/09/24 05:12:55;;;;;;;0.00;0.00;;;12.30;99.90;;;;;;5055225;28;20044;-80
2022/09/24 05:15:22;;;;;;;0.00;0.00;;;12.30;99.90;;;;;;5058422;28;20139;-81
2022/09/24 05:17:48;;;;;;;0.00;0.00;;;12.30;99.90;;;;;;5041647;28;20041;-82
2022/09/24 05:20:15;;;;;;;0.00;0.00;;;12.40;99.90;;;;;;5043418;28;20102;-81
2022/09/24 05:22:43;;;;;;;0.00;0.00;;;12.40;99.90;;;;;;5029623;28;20049;-82
2022/09/24 05:25:13;;;;;;;0.00;0.00;;;12.40;99.90;;;;;;5040882;28;20527;-81
2022/09/24 05:27:43;;;;;;;0.00;0.00;;;12.40;99.90;;;;;;5038965;28;20113;-81
2022/09/24 05:30:11;;;;;;;0.00;0.00;;;12.50;99.90;;;;;;5059465;28;20116;-80
2022/09/24 05:32:38;;;;;;;0.00;0.00;;;12.50;99.90;;;;;;5039752;28;20622;-81
2022/09/24 05:35:08;;;;;;;0.00;0.00;;;12.40;99.90;;;;;;5040082;28;20471;-81
2022/09/24 05:37:37;;;;;;;0.00;0.00;;;12.50;99.90;;;;;;5061133;28;20136;-81
2022/09/24 05:42:58;;;;;;;0.00;0.00;;;12.50;99.90;;;;;;5058527;28;20099;-81
2022/09/24 05:45:25;;;;;;;0.00;0.00;;;12.50;99.90;;;;;;5044802;28;20168;-82
2022/09/24 05:47:52;;;;;;;0.00;0.00;;;12.50;99.90;;;;;;5058368;28;20105;-81
2022/09/24 05:50:18;;;;;;;0.00;0.00;;;12.60;99.90;;;;;;5042615;28;20120;-80
2022/09/24 05:52:45;;;;;;;0.00;0.00;;;12.60;99.90;;;;;;5041600;28;20167;-79
2022/09/24 05:55:12;;;;;;;0.00;0.00;;;12.60;99.90;;;;;;5055675;28;20465;-81
2022/09/24 05:57:39;;;;;;;0.00;0.00;;;12.60;99.90;;;;;;5056916;28;20111;-81
2022/09/24 06:00:08;;;;;;;0.00;0.00;;;12.60;99.90;;;;;;5042350;28;20124;-80
2022/09/24 06:02:34;;;;;;;0.00;0.00;;;12.60;99.90;;;;;;5056603;28;20140;-81
2022/09/24 06:05:01;;;;;;;0.00;0.00;;;12.70;99.90;;;;;;5058063;28;20037;-81
2022/09/24 06:07:28;;;;;;;0.00;0.00;;;12.70;99.90;;;;;;5040910;28;20124;-81
2022/09/24 06:09:58;;;;;;;0.00;0.00;;;12.70;99.90;;;;;;5042483;28;20116;-81
2022/09/24 06:12:25;;;;;;;0.00;0.00;;;12.80;99.90;;;;;;5055847;28;20129;-81
2022/09/24 06:14:52;;;;;;;0.00;0.00;;;12.80;99.90;;;;;;5056256;28;20044;-81
2022/09/24 06:17:21;;;;;;;0.00;0.00;;;12.90;99.90;;;;;;5058006;28;20120;-81
2022/09/24 06:19:47;;;;;;;0.00;0.00;;;12.90;99.90;;;;;;5037289;28;20335;-81
2022/09/24 06:22:14;;;;;;;0.00;0.00;;;12.90;99.90;;;;;;5059037;28;20119;-81
2022/09/24 06:24:41;;;;;;;0.00;0.00;;;12.90;99.90;;;;;;5053461;28;20041;-81
2022/09/24 06:27:08;;;;;;;0.03;0.03;;;12.90;99.90;;;;;;5053585;28;20131;-81
2022/09/24 06:29:34;;;;;;;0.00;0.00;;;12.90;99.90;;;;;;5034854;28;20051;-80
2022/09/24 06:32:01;;;;;;;0.00;0.00;;;12.90;99.90;;;;;;5037542;28;20036;-80
2022/09/24 06:34:29;;;;;;;0.00;0.00;;;12.90;99.90;;;;;;5040290;28;20505;-80
2022/09/24 06:36:56;;;;;;;0.00;0.00;;;13.00;99.90;;;;;;5054717;28;20096;-79
2022/09/24 06:39:24;;;;;;;0.00;0.00;;;13.00;99.90;;;;;;5049098;28;20118;-80
2022/09/24 06:41:51;;;;;;;0.00;0.00;;;13.00;99.90;;;;;;5050047;28;20037;-80
2022/09/24 06:44:19;;;;;;;0.00;0.00;;;13.10;99.90;;;;;;5054062;28;20116;-81
2022/09/24 06:46:46;;;;;;;0.00;0.00;;;13.00;99.90;;;;;;5047900;28;20064;-80
2022/09/24 06:49:12;;;;;;;0.00;0.00;;;13.00;99.90;;;;;;5037878;28;20049;-80
2022/09/24 06:51:41;;;;;;;0.00;0.00;;;13.00;99.90;;;;;;5053154;28;20043;-81
2022/09/24 06:54:08;;;;;;;0.00;0.00;;;13.10;99.90;;;;;;5048139;28;20470;-81
2022/09/24 06:56:34;;;;;;;0.00;0.00;;;13.20;99.90;;;;;;5052664;28;20044;-80
2022/09/24 06:59:01;;;;;;;0.00;0.00;;;13.20;99.90;;;;;;5050851;28;20047;-80
2022/09/24 07:01:28;;;;;;;0.00;0.00;;;13.20;99.90;;;;;;5046798;28;20052;-81
2022/09/24 07:03:55;;;;;;;0.00;0.00;;;13.20;99.90;;;;;;5035364;28;20044;-81
2022/09/24 07:06:22;;;;;;;0.00;0.00;;;13.30;99.90;;;;;;5034524;28;20043;-80
2022/09/24 07:08:50;;;;;;;0.00;0.00;;;13.30;99.90;;;;;;5047469;28;20045;-81
2022/09/24 07:11:17;;;;;;;0.00;0.00;;;13.20;99.90;;;;;;5046091;28;20037;-81
2022/09/24 07:13:44;;;;;;;0.00;0.00;;;13.30;99.90;;;;;;5048899;28;20576;-80
2022/09/24 07:16:11;;;;;;;0.00;0.00;;;13.40;99.90;;;;;;5050968;28;20045;-80
2022/09/24 07:18:38;;;;;;;0.00;0.00;;;13.30;99.90;;;;;;5031966;28;20048;-80
2022/09/24 07:21:05;;;;;;;0.00;0.00;;;13.30;99.90;;;;;;5031466;28;20034;-80
2022/09/24 07:23:31;;;;;;;0.00;0.00;;;13.30;99.90;;;;;;5052008;28;20096;-80
2022/09/24 07:26:00;;;;;;;0.00;0.00;;;13.30;99.90;;;;;;5030174;28;20803;-80
2022/09/24 07:28:26;;;;;;;0.00;0.00;;;13.20;99.90;;;;;;5030304;28;20037;-81
2022/09/24 07:30:57;;;;;;;0.00;0.00;;;13.10;99.90;;;;;;5034801;28;20044;-82
2022/09/24 07:33:24;;;;;;;0.00;0.00;;;13.00;99.90;;;;;;5037204;28;20076;-82
2022/09/24 07:35:51;;;;;;;0.00;0.00;;;13.00;99.90;;;;;;5038098;28;20072;-83
2022/09/24 07:38:18;;;;;;;0.00;0.00;;;13.10;99.90;;;;;;5036457;28;20053;-83
2022/09/24 07:40:45;;;;;;;0.00;0.00;;;13.10;99.90;;;;;;5047904;28;20140;-81
2022/09/24 07:43:13;;;;;;;0.00;0.00;;;13.00;99.90;;;;;;5031800;28;20428;-80
2022/09/24 07:45:41;;;;;;;0.00;0.00;;;13.10;99.90;;;;;;5052765;28;20047;-81
2022/09/24 07:48:09;;;;;;;0.00;0.00;;;13.20;99.90;;;;;;5030776;28;20580;-81
2022/09/24 07:50:38;;;;;;;0.00;0.00;;;13.20;99.90;;;;;;5027728;28;20493;-81
2022/09/24 07:53:05;;;;;;;0.00;0.00;;;13.30;99.90;;;;;;5045050;28;20053;-81
2022/09/24 07:55:38;;;;;;;0.00;0.00;;;13.30;99.90;;;;;;5033679;28;20029;-81
2022/09/24 07:58:06;;;;;;;0.00;0.00;;;13.40;99.90;;;;;;5024652;28;20049;-80
2022/09/24 08:00:34;;;;;;;0.00;0.00;;;13.40;99.90;;;;;;5046228;28;20106;-80
2022/09/24 08:03:02;;;;;;;0.00;0.00;;;13.60;99.90;;;;;;5050877;28;20464;-82
2022/09/24 08:05:29;;;;;;;0.00;0.00;;;13.60;99.90;;;;;;5038400;28;20063;-81
2022/09/24 08:07:56;;;;;;;0.00;0.00;;;13.60;99.90;;;;;;5053697;28;20049;-81
2022/09/24 08:10:25;;;;;;;0.00;0.00;;;13.60;99.90;;;;;;5043169;28;20045;-81
2022/09/24 08:12:52;;;;;;;0.00;0.00;;;13.60;99.90;;;;;;5051885;28;20107;-82
2022/09/24 08:15:21;;;;;;;0.00;0.00;;;13.70;99.90;;;;;;5039439;28;20047;-81
2022/09/24 08:17:50;;;;;;;;;;;13.80;99.90;;;;;;5037932;28;20048;-81
2022/09/24 08:20:17;;;;;;;0.00;0.00;;;13.80;99.90;;;;;;5051181;28;20376;-81
2022/09/24 08:22:44;;;;;;;0.00;0.00;;;13.80;99.90;;;;;;5051715;28;20065;-81
2022/09/24 08:25:11;;;;;;;0.00;0.00;;;13.80;99.90;;;;;;5051565;28;20518;-80
2022/09/24 08:27:38;;;;;;;0.00;0.00;;;13.80;99.90;;;;;;5030854;28;20045;-80
2022/09/24 08:30:06;;;;;;;0.00;0.00;;;13.90;99.90;;;;;;5050575;28;20082;-81
2022/09/24 08:32:33;;;;;;;0.00;0.00;;;13.90;99.90;;;;;;5051215;28;20060;-81
2022/09/24 08:35:01;;;;;;;0.00;0.00;;;13.90;99.90;;;;;;5042611;28;20678;-81
2022/09/24 08:37:28;;;;;;;0.00;0.00;;;14.00;99.90;;;;;;5037661;28;20045;-82
2022/09/24 08:39:56;;;;;;;0.00;0.00;;;14.10;99.90;;;;;;5030720;28;20049;-82
2022/09/24 08:42:33;;;;;;;0.00;0.00;;;14.10;99.90;;;;;;5026751;28;20047;-82
2022/09/24 08:48:10;;;;;;;0.00;0.00;;;14.20;99.90;;;;;;5006700;28;20083;-81
2022/09/24 08:50:46;;;;;;;0.10;0.10;;;14.30;99.90;;;;;;5028194;28;20501;-82
2022/09/24 08:53:19;;;;;;;0.00;0.00;;;14.30;99.90;;;;;;5040301;28;20053;-80
2022/09/24 08:55:47;;;;;;;0.00;0.00;;;14.30;99.90;;;;;;5026394;28;20577;-81
2022/09/24 08:58:30;;;;;;;0.00;0.00;;;14.20;99.90;;;;;;5032628;28;20488;-81
2022/09/24 09:01:04;;;;;;;0.00;0.00;;;14.30;99.90;;;;;;5040968;28;20091;-81
2022/09/24 09:03:36;;;;;;;0.00;0.00;;;14.40;99.90;;;;;;5027226;28;20040;-82
2022/09/24 09:06:14;;;;;;;0.00;0.00;;;14.40;99.90;;;;;;5023925;28;20072;-81
2022/09/24 09:08:49;;;;;;;0.00;0.00;;;14.40;99.90;;;;;;5034963;28;20082;-81
2022/09/24 09:11:34;;;;;;;0.00;0.00;;;14.50;99.90;;;;;;5050337;28;20493;-82
2022/09/24 09:14:07;;;;;;;0.00;0.00;;;14.40;99.90;;;;;;5049522;28;20459;-81
2022/09/24 09:16:42;;;;;;;0.00;0.00;;;14.60;99.90;;;;;;5037334;28;20072;-81
2022/09/24 09:19:13;;;;;;;0.00;0.00;;;14.80;99.90;;;;;;5036854;28;20112;-81
2022/09/24 09:24:15;;;;;;;;;;;14.90;99.90;;;;;;5029448;28;20099;-85
2022/09/24 09:26:45;;;;;;;0.00;0.00;;;14.80;99.90;;;;;;5038900;28;20431;-84
2022/09/24 09:29:12;;;;;;;0.00;0.00;;;14.90;99.90;;;;;;5038689;28;20075;-83
2022/09/24 09:31:46;;;;;;;0.00;0.00;;;15.00;99.90;;;;;;5036741;28;20216;-84
2022/09/24 09:34:31;;;;;;;0.00;0.00;;;15.00;99.90;;;;;;5011173;28;20046;-84
2022/09/24 09:37:13;;;;;;;0.00;0.00;;;15.10;99.90;;;;;;5020892;28;20120;-82
2022/09/24 09:39:49;;;;;;;0.00;0.00;;;15.10;99.90;;;;;;5027151;28;20042;-85
2022/09/24 09:42:27;;;;;;;0.00;0.00;;;15.20;99.90;;;;;;5015347;28;20029;-85
2022/09/24 09:44:54;;;;;;;0.00;0.00;;;15.30;99.90;;;;;;5018153;28;20098;-84
2022/09/24 09:47:31;;;;;;;0.00;0.00;;;15.30;99.90;;;;;;5031707;28;20417;-85
2022/09/24 09:50:04;;;;;;;0.00;0.00;;;15.40;99.90;;;;;;5019235;28;20501;-84
2022/09/24 09:52:37;;;;;;;0.00;0.00;;;15.40;99.90;;;;;;5009860;28;20044;-84
2022/09/24 09:55:06;;;;;;;0.00;0.00;;;15.60;99.90;;;;;;5030090;28;20502;-83
2022/09/24 09:57:37;;;;;;;0.00;0.00;;;15.60;99.90;;;;;;5004906;28;20049;-83
2022/09/24 10:00:05;;;;;;;0.00;0.00;;;15.60;99.90;;;;;;5015954;28;20045;-85
2022/09/24 10:02:34;;;;;;;0.00;0.00;;;15.60;99.90;;;;;;5019712;28;20034;-85
2022/09/24 10:05:02;;;;;;;0.00;0.00;;;15.80;99.90;;;;;;5028465;28;20080;-82
2022/09/24 10:07:30;;;;;;;0.00;0.00;;;15.80;99.90;;;;;;5025266;28;20432;-84
2022/09/24 10:10:00;;;;;;;0.00;0.00;;;16.00;99.90;;;;;;5016276;28;20049;-84
2022/09/24 10:12:29;;;;;;;;;;;16.00;99.90;;;;;;5008585;28;20058;-84
2022/09/24 10:15:00;;;;;;;0.00;0.00;;;15.90;99.90;;;;;;5003708;28;19936;-84
2022/09/24 10:17:32;;;;;;;0.00;0.00;;;15.80;99.90;;;;;;5021127;28;20088;-83
2022/09/24 10:20:01;;;;;;;0.03;0.03;;;16.00;99.90;;;;;;5012544;28;20103;-82
2022/09/24 10:22:29;;;;;;;0.00;0.00;;;16.00;99.90;;;;;;5024568;28;20041;-84
2022/09/24 10:24:58;;;;;;;0.00;0.00;;;15.80;99.90;;;;;;5028819;28;20048;-84
2022/09/24 10:27:31;;;;;;;0.00;0.00;;;15.90;99.90;;;;;;5025828;28;20045;-84
2022/09/24 10:32:54;;;;;;;0.00;0.00;;;16.20;99.90;;;;;;5027631;28;20112;-85
2022/09/24 10:35:25;;;;;;;0.00;0.00;;;16.30;99.90;;;;;;5027759;28;20037;-83
2022/09/24 10:37:53;;;;;;;0.00;0.00;;;16.40;99.90;;;;;;5029289;28;20077;-84
2022/09/24 10:40:24;;;;;;;0.00;0.00;;;16.40;99.90;;;;;;5004749;28;20147;-86
2022/09/24 10:43:00;;;;;;;0.00;0.00;;;16.40;99.90;;;;;;5024709;28;20045;-85
2022/09/24 10:45:45;;;;;;;0.00;0.00;;;16.40;99.90;;;;;;5025839;28;20037;-86
2022/09/24 10:48:19;;;;;;;0.00;0.00;;;16.50;99.90;;;;;;5022495;28;20058;-86
2022/09/24 10:50:53;;;;;;;0.00;0.00;;;16.50;99.90;;;;;;5009729;28;20421;-85
2022/09/24 10:53:31;;;;;;;0.00;0.00;;;16.50;99.90;;;;;;5006324;28;20647;-86
2022/09/24 10:56:05;;;;;;;0.00;0.00;;;16.50;99.90;;;;;;5013652;28;20641;-86
2022/09/24 10:59:10;;;;;;;0.00;0.00;;;16.60;99.90;;;;;;5028280;28;20168;-86
2022/09/24 11:01:46;;;;;;;0.00;0.00;;;16.60;99.90;;;;;;5010408;28;20122;-85
2022/09/24 11:04:25;;;;;;;0.00;0.00;;;16.50;99.90;;;;;;5010068;28;20045;-84
2022/09/24 11:07:15;;;;;;;0.00;0.00;;;16.60;99.90;;;;;;5019485;28;20506;-85
2022/09/24 11:09:48;;;;;;;0.00;0.00;;;16.40;99.90;;;;;;5027282;28;20044;-84
2022/09/24 11:12:26;;;;;;;0.00;0.00;;;16.20;99.90;;;;;;5024925;28;20033;-86
2022/09/24 11:15:18;;;;;;;0.00;0.00;;;16.40;99.90;;;;;;5031361;28;20052;-85
2022/09/24 11:17:57;;;;;;;0.00;0.00;;;16.40;99.90;;;;;;5031108;28;20486;-84
2022/09/24 11:20:32;;;;;;;0.00;0.00;;;16.40;99.90;;;;;;5028423;28;20137;-88
2022/09/24 11:23:32;;;;;;;0.00;0.00;;;16.40;99.90;;;;;;5010897;28;20037;-88
2022/09/24 11:26:02;;;;;;;;;;;16.50;99.90;;;;;;5009705;28;20096;-88
2022/09/24 11:28:49;;;;;;;0.00;0.00;;;16.40;99.90;;;;;;5016648;28;19920;-87
2022/09/24 11:31:22;;;;;;;0.00;0.00;;;16.30;99.90;;;;;;5030089;28;20073;-86
2022/09/24 11:34:06;;;;;;;0.00;0.00;;;16.30;99.90;;;;;;5032580;28;20048;-87
2022/09/24 11:36:51;;;;;;;0.00;0.00;;;16.40;99.90;;;;;;5008227;28;20046;-86
2022/09/24 11:39:32;;;;;;;0.00;0.00;;;16.30;99.90;;;;;;5011086;28;20099;-88
2022/09/24 11:42:06;;;;;;;0.00;0.00;;;16.40;99.90;;;;;;5015046;28;20432;-87
2022/09/24 11:45:01;;;;;;;0.00;0.00;;;16.50;99.90;;;;;;5006029;28;20068;-86
2022/09/24 11:47:43;;;;;;;0.00;0.00;;;16.50;99.90;;;;;;5008147;28;20062;-87
2022/09/24 11:50:25;;;;;;;0.00;0.00;;;16.60;99.90;;;;;;5007143;28;20045;-87
2022/09/24 11:52:59;;;;;;;0.00;0.00;;;16.70;99.90;;;;;;4990607;28;20128;-86
2022/09/24 11:55:33;;;;;;;0.10;0.10;;;16.60;99.90;;;;;;4994739;28;21559;-88
2022/09/24 11:58:11;;;;;;;0.00;0.00;;;16.30;99.90;;;;;;5010069;28;20466;-87
2022/09/24 12:00:43;;;;;;;0.00;0.00;;;16.20;99.90;;;;;;5014772;28;20053;-87
2022/09/24 12:03:19;;;;;;;0.00;0.00;;;16.40;99.90;;;;;;5009993;28;20124;-87
2022/09/24 12:05:59;;;;;;;0.00;0.00;;;16.60;99.90;;;;;;4999618;28;20041;-86
2022/09/24 12:08:31;;;;;;;0.00;0.00;;;16.70;99.90;;;;;;5024696;28;20037;-86
2022/09/24 12:11:03;;;;;;;0.00;0.00;;;16.70;99.90;;;;;;5016961;28;20872;-88
2022/09/24 12:13:34;;;;;;;0.00;0.00;;;16.70;99.90;;;;;;5014396;28;20041;-87
2022/09/24 12:16:07;;;;;;;0.00;0.00;;;16.80;99.90;;;;;;5017394;28;20037;-87
2022/09/24 12:18:43;;;;;;;0.00;0.00;;;16.80;99.90;;;;;;5014760;28;20045;-89
2022/09/24 12:21:14;;;;;;;0.00;0.00;;;16.70;99.90;;;;;;5017284;28;20063;-84
2022/09/24 12:23:44;;;;;;;0.00;0.00;;;16.60;99.90;;;;;;5010220;28;21294;-87
2022/09/24 12:26:16;;;;;;;0.00;0.00;;;16.60;99.90;;;;;;4987797;28;20524;-86
2022/09/24 12:34:43;;;;;;;0.00;0.00;;;16.90;99.90;;;;;;5016551;28;20408;-87
2022/09/24 12:37:15;;;;;;;0.00;0.00;;;16.70;99.90;;;;;;5004465;28;20042;-86
2022/09/24 12:39:49;;;;;;;0.00;0.00;;;16.70;99.90;;;;;;5013932;28;20414;-84
2022/09/24 12:42:19;;;;;;;0.00;0.00;;;16.70;99.90;;;;;;5015938;28;20055;-86
2022/09/24 12:44:50;;;;;;;0.00;0.00;;;16.80;99.90;;;;;;5008073;28;20057;-87
2022/09/24 12:47:20;;;;;;;0.00;0.00;;;16.90;99.90;;;;;;5003523;28;20428;-86
2022/09/24 12:49:51;;;;;;;;;;;16.80;99.90;;;;;;5015493;28;20049;-86
2022/09/24 12:52:24;;;;;;;0.00;0.00;;;16.80;99.90;;;;;;5020642;28;19925;-88
2022/09/24 12:54:57;;;;;;;0.00;0.00;;;16.90;99.90;;;;;;4995334;28;20129;-86
2022/09/24 12:57:27;;;;;;;0.00;0.00;;;17.00;99.90;;;;;;5024584;28;20072;-86
2022/09/24 12:59:55;;;;;;;0.00;0.00;;;17.20;99.90;;;;;;5036905;28;20075;-86
2022/09/24 13:02:25;;;;;;;0.00;0.00;;;17.20;99.90;;;;;;5021499;28;20493;-88
2022/09/24 13:05:17;;;;;;;0.00;0.00;;;17.30;99.90;;;;;;5026334;28;20058;-87
2022/09/24 13:07:55;;;;;;;0.00;0.00;;;17.30;99.90;;;;;;5007161;28;20044;-87
2022/09/24 13:10:25;;;;;;;0.00;0.00;;;17.30;99.90;;;;;;5038436;28;20036;-86
2022/09/24 13:12:53;;;;;;;0.00;0.00;;;17.30;99.90;;;;;;5031447;28;20830;-86
2022/09/24 13:15:29;;;;;;;0.00;0.00;;;17.30;99.90;;;;;;5013612;28;20073;-87
2022/09/24 13:18:18;;;;;;;0.00;0.00;;;17.30;99.90;;;;;;5022295;28;20466;-84
2022/09/24 13:20:58;;;;;;;0.00;0.00;;;17.40;99.90;;;;;;5024003;28;20084;-84
2022/09/24 13:23:32;;;;;;;0.00;0.00;;;17.50;99.90;;;;;;5017212;28;20091;-86
2022/09/24 13:26:03;;;;;;;0.00;0.00;;;17.40;99.90;;;;;;5031270;28;20037;-86
2022/09/24 13:28:32;;;;;;;0.00;0.00;;;17.40;99.90;;;;;;5035527;28;20033;-85
2022/09/24 13:31:13;;;;;;;0.00;0.00;;;17.20;99.90;;;;;;5003473;28;20060;-85